Time;durP1;ratioP1;P1;durP2;ratioP2;P2;SDS_P1;SDS_P2;PMS_P1;PMS_P2;Temp;Humidity;BMP_temperature;BMP_pressure;BME280_temperature;BME280_humidity;BME280_pressure;Samples;Min_cycle;Max_cycle;Signal;HPM_P1;HPM_P2
2021/05/31 00:01:54;;;;;;;74.20;32.78;;;9.50;99.90;;;;;;5055809;28;20052;-71
2021/05/31 00:04:20;;;;;;;108.35;35.78;;;9.40;99.90;;;;;;5055660;28;20037;-71
2021/05/31 00:06:55;;;;;;;80.85;36.58;;;9.10;99.90;;;;;;5054948;28;20041;-71
2021/05/31 00:09:20;;;;;;;109.22;38.55;;;9.10;99.90;;;;;;5055191;28;20041;-71
2021/05/31 00:11:46;;;;;;;67.63;35.67;;;9.10;99.90;;;;;;5054651;28;20033;-71
2021/05/31 00:14:12;;;;;;;72.80;37.58;;;9.30;99.90;;;;;;5055575;28;20374;-71
2021/05/31 00:16:37;;;;;;;78.00;39.15;;;9.40;99.90;;;;;;5055010;28;20160;-72
2021/05/31 00:19:04;;;;;;;78.00;40.63;;;9.40;99.90;;;;;;5054812;28;20048;-72
2021/05/31 00:21:31;;;;;;;83.88;39.97;;;9.50;99.90;;;;;;5054716;28;20044;-72
2021/05/31 00:23:57;;;;;;;73.05;37.28;;;9.50;99.90;;;;;;5054957;28;20073;-72
2021/05/31 00:26:23;;;;;;;73.43;32.63;;;9.60;99.90;;;;;;5054999;28;20037;-71
2021/05/31 00:28:49;;;;;;;66.53;28.67;;;9.60;99.90;;;;;;5054829;28;20029;-72
2021/05/31 00:31:16;;;;;;;47.90;27.25;;;9.50;99.90;;;;;;5054573;28;20043;-72
2021/05/31 00:33:43;;;;;;;56.58;28.95;;;9.50;99.90;;;;;;5054962;28;20044;-72
2021/05/31 00:36:09;;;;;;;67.75;30.00;;;9.50;99.90;;;;;;5054678;28;20043;-72
2021/05/31 00:38:35;;;;;;;58.42;28.60;;;9.50;99.90;;;;;;5054420;28;20400;-72
2021/05/31 00:41:03;;;;;;;68.47;29.60;;;9.50;99.90;;;;;;5054720;28;20037;-71
2021/05/31 00:43:34;;;;;;;56.08;30.88;;;9.20;99.90;;;;;;5054263;28;20086;-72
2021/05/31 00:46:04;;;;;;;54.63;30.52;;;9.20;99.90;;;;;;5054293;28;20037;-71
2021/05/31 00:48:30;;;;;;;51.08;29.33;;;9.20;99.90;;;;;;5053943;28;20481;-71
2021/05/31 00:51:02;;;;;;;55.60;28.73;;;9.30;99.90;;;;;;5054366;28;20052;-71
2021/05/31 00:53:29;;;;;;;63.58;32.05;;;9.40;99.90;;;;;;5054560;28;20037;-71
2021/05/31 00:55:55;;;;;;;56.83;29.10;;;9.40;99.90;;;;;;5054208;28;20089;-71
2021/05/31 00:58:24;;;;;;;69.80;32.35;;;9.40;99.90;;;;;;5054054;28;20045;-71
2021/05/31 01:00:50;;;;;;;61.95;29.67;;;9.40;99.90;;;;;;5053464;28;20037;-71
2021/05/31 01:03:16;;;;;;;65.93;30.15;;;9.30;99.90;;;;;;5053829;28;20039;-71
2021/05/31 01:05:42;;;;;;;58.63;28.92;;;9.40;99.90;;;;;;5053827;28;20037;-71
2021/05/31 01:08:13;;;;;;;54.70;29.30;;;9.40;99.90;;;;;;5054323;28;20152;-71
2021/05/31 01:11:12;;;;;;;53.10;27.95;;;9.40;99.90;;;;;;5053583;28;20041;-71
2021/05/31 01:13:41;;;;;;;50.05;27.15;;;9.30;99.90;;;;;;5053948;28;20044;-71
2021/05/31 01:16:26;;;;;;;45.33;25.08;;;9.40;99.90;;;;;;5054316;28;20033;-71
2021/05/31 01:18:53;;;;;;;50.03;26.00;;;9.40;99.90;;;;;;5053800;28;20045;-72
2021/05/31 01:21:58;;;;;;;41.78;25.25;;;9.50;99.90;;;;;;5053489;28;20037;-71
2021/05/31 01:24:27;;;;;;;;;;;9.50;99.90;;;;;;5054360;28;20040;-71
2021/05/31 01:27:11;;;;;;;42.92;24.17;;;9.40;99.90;;;;;;5053529;28;20016;-71
2021/05/31 01:29:43;;;;;;;51.58;27.05;;;9.40;99.90;;;;;;5053281;28;20116;-71
2021/05/31 01:32:11;;;;;;;41.25;24.67;;;9.40;99.90;;;;;;5053479;28;20044;-71
2021/05/31 01:34:41;;;;;;;42.60;24.63;;;9.50;99.90;;;;;;5053419;28;20044;-71
2021/05/31 01:37:16;;;;;;;39.22;22.67;;;9.60;99.90;;;;;;5053660;28;20115;-71
2021/05/31 01:39:46;;;;;;;43.08;24.58;;;9.60;99.90;;;;;;5053175;28;20041;-71
2021/05/31 01:42:13;;;;;;;54.47;26.85;;;9.70;99.90;;;;;;5053998;28;20037;-71
2021/05/31 01:44:39;;;;;;;46.53;27.15;;;9.70;99.90;;;;;;5053304;28;20048;-71
2021/05/31 01:47:06;;;;;;;47.47;28.25;;;9.70;99.90;;;;;;5053300;28;20064;-71
2021/05/31 01:49:34;;;;;;;45.22;27.85;;;9.70;99.90;;;;;;5052880;28;20405;-71
2021/05/31 01:52:00;;;;;;;48.53;27.98;;;9.70;99.90;;;;;;5053230;28;20552;-71
2021/05/31 01:54:28;;;;;;;50.85;28.05;;;9.70;99.90;;;;;;5053470;28;20112;-71
2021/05/31 01:56:54;;;;;;;42.45;26.17;;;9.80;99.90;;;;;;5053047;28;20068;-71
2021/05/31 01:59:21;;;;;;;54.95;27.98;;;9.80;99.90;;;;;;5053140;28;20044;-71
2021/05/31 02:01:49;;;;;;;54.53;26.48;;;9.80;99.90;;;;;;5053241;28;20068;-71
2021/05/31 02:04:15;;;;;;;45.20;27.05;;;9.90;99.90;;;;;;5053065;28;20041;-71
2021/05/31 02:06:42;;;;;;;77.20;29.17;;;9.90;99.90;;;;;;5053561;28;20073;-71
2021/05/31 02:09:08;;;;;;;70.30;28.25;;;9.70;99.90;;;;;;5053149;28;20454;-71
2021/05/31 02:11:48;;;;;;;54.58;26.52;;;9.70;99.90;;;;;;5052772;28;20044;-71
2021/05/31 02:14:28;;;;;;;42.03;23.65;;;9.70;99.90;;;;;;5055285;28;20396;-71
2021/05/31 02:17:02;;;;;;;51.03;27.65;;;9.80;99.90;;;;;;5057464;28;20044;-71
2021/05/31 02:19:28;;;;;;;47.08;26.98;;;9.80;99.90;;;;;;5057058;28;20048;-71
2021/05/31 02:21:56;;;;;;;63.10;28.10;;;9.90;99.90;;;;;;5057637;28;20041;-71
2021/05/31 02:24:22;;;;;;;71.18;28.65;;;10.00;99.90;;;;;;5057063;28;20043;-71
2021/05/31 02:26:49;;;;;;;64.18;28.60;;;10.00;99.90;;;;;;5057327;28;20033;-71
2021/05/31 02:29:15;;;;;;;61.20;28.05;;;10.10;99.90;;;;;;5056529;28;20045;-71
2021/05/31 02:31:42;;;;;;;56.88;27.65;;;10.10;99.90;;;;;;5056697;28;20036;-71
2021/05/31 02:34:08;;;;;;;56.58;27.30;;;10.10;99.90;;;;;;5056686;28;20058;-71
2021/05/31 02:36:35;;;;;;;56.90;28.17;;;10.10;99.90;;;;;;5057238;28;20041;-72
2021/05/31 02:39:00;;;;;;;42.17;25.48;;;10.10;99.90;;;;;;5056278;28;20044;-72
2021/05/31 02:41:26;;;;;;;71.00;29.08;;;10.20;99.90;;;;;;5056934;28;20033;-72
2021/05/31 02:43:52;;;;;;;48.40;24.95;;;10.20;99.90;;;;;;5038933;28;20040;-71
2021/05/31 02:46:18;;;;;;;51.10;24.52;;;10.20;99.90;;;;;;5056485;28;20503;-71
2021/05/31 02:48:44;;;;;;;81.00;26.90;;;10.30;99.90;;;;;;5038366;28;20041;-72
2021/05/31 02:51:09;;;;;;;45.10;25.13;;;10.20;99.90;;;;;;5056516;28;20033;-72
2021/05/31 02:53:36;;;;;;;62.30;25.48;;;10.20;99.90;;;;;;5056448;28;20120;-72
2021/05/31 02:56:02;;;;;;;58.70;25.13;;;10.20;99.90;;;;;;5056302;28;20041;-71
2021/05/31 02:58:29;;;;;;;48.38;25.98;;;10.20;99.90;;;;;;5056036;28;20037;-72
2021/05/31 03:00:54;;;;;;;50.65;25.45;;;10.20;99.90;;;;;;5056646;28;20041;-71
2021/05/31 03:03:20;;;;;;;41.00;23.65;;;10.20;99.90;;;;;;5056806;28;20377;-72
2021/05/31 03:05:46;;;;;;;39.95;23.35;;;10.10;99.90;;;;;;5056235;28;20121;-72
2021/05/31 03:08:12;;;;;;;38.17;21.75;;;10.10;99.90;;;;;;5056260;28;20072;-71
2021/05/31 03:10:37;;;;;;;40.42;22.95;;;10.20;99.90;;;;;;5055661;28;20488;-71
2021/05/31 03:13:03;;;;;;;45.10;25.25;;;10.20;99.90;;;;;;5056024;28;20052;-72
2021/05/31 03:15:29;;;;;;;46.15;24.88;;;10.10;99.90;;;;;;5056135;28;20048;-72
2021/05/31 03:17:55;;;;;;;46.13;24.52;;;10.10;99.90;;;;;;5056501;28;20099;-72
2021/05/31 03:20:28;;;;;;;43.38;24.63;;;10.10;99.90;;;;;;5055760;28;20385;-72
2021/05/31 03:22:55;;;;;;;41.45;22.67;;;10.10;99.90;;;;;;5056162;28;20037;-72
2021/05/31 03:25:21;;;;;;;43.35;24.90;;;10.20;99.90;;;;;;5056166;28;20033;-72
2021/05/31 03:27:47;;;;;;;40.15;24.23;;;10.20;99.90;;;;;;5056218;28;20123;-72
2021/05/31 03:30:14;;;;;;;42.80;24.00;;;10.20;99.90;;;;;;5055668;28;20126;-72
2021/05/31 03:32:40;;;;;;;52.75;25.75;;;10.20;99.90;;;;;;5056177;28;20040;-72
2021/05/31 03:35:08;;;;;;;46.95;24.67;;;10.20;99.90;;;;;;5055727;28;20059;-72
2021/05/31 03:37:34;;;;;;;47.30;23.75;;;10.20;99.90;;;;;;5056057;28;20499;-71
2021/05/31 03:40:00;;;;;;;37.92;22.42;;;10.30;99.90;;;;;;5055195;28;20041;-72
2021/05/31 03:42:26;;;;;;;45.22;24.00;;;10.30;99.90;;;;;;5056189;28;20072;-72
2021/05/31 03:44:52;;;;;;;41.92;23.77;;;10.30;99.90;;;;;;5055875;28;20397;-72
2021/05/31 03:47:18;;;;;;;41.25;22.85;;;10.20;99.90;;;;;;5056045;28;20051;-72
2021/05/31 03:49:44;;;;;;;39.05;24.33;;;10.30;99.90;;;;;;5055128;28;20033;-72
2021/05/31 03:52:11;;;;;;;47.17;23.23;;;10.20;99.90;;;;;;5055917;28;20046;-72
2021/05/31 03:54:37;;;;;;;44.42;25.02;;;10.30;99.90;;;;;;5055622;28;20041;-72
2021/05/31 03:57:03;;;;;;;52.78;26.63;;;10.30;99.90;;;;;;5055233;28;20056;-72
2021/05/31 03:59:30;;;;;;;47.17;24.35;;;10.30;99.90;;;;;;5054734;28;20047;-72
2021/05/31 04:01:55;;;;;;;51.30;26.48;;;10.40;99.90;;;;;;5055758;28;20040;-72
2021/05/31 04:04:22;;;;;;;47.58;25.02;;;10.40;99.90;;;;;;5055265;28;20044;-72
2021/05/31 04:11:59;;;;;;;51.67;24.42;;;10.40;99.90;;;;;;5055245;28;20044;-72
2021/05/31 04:14:25;;;;;;;49.80;26.25;;;10.40;99.90;;;;;;5054869;28;20040;-72
2021/05/31 04:16:55;;;;;;;59.03;27.13;;;10.50;99.90;;;;;;5054755;28;20037;-72
2021/05/31 04:19:23;;;;;;;52.55;25.63;;;10.40;99.90;;;;;;5054409;28;20072;-72
2021/05/31 04:21:51;;;;;;;58.45;28.08;;;10.50;99.90;;;;;;5054591;28;20033;-72
2021/05/31 04:24:18;;;;;;;54.67;27.80;;;10.50;99.90;;;;;;5054502;28;20374;-72
2021/05/31 04:26:45;;;;;;;49.33;26.83;;;10.60;99.90;;;;;;5054889;28;20442;-72
2021/05/31 04:29:13;;;;;;;47.83;25.23;;;10.60;99.90;;;;;;5054309;28;20040;-72
2021/05/31 04:31:40;;;;;;;60.53;29.65;;;10.70;99.90;;;;;;5054530;28;20041;-72
2021/05/31 04:34:08;;;;;;;49.85;25.77;;;10.60;99.90;;;;;;5055029;28;20037;-72
2021/05/31 04:36:34;;;;;;;59.50;29.70;;;10.70;99.90;;;;;;5053651;28;20045;-72
2021/05/31 04:39:02;;;;;;;58.42;26.67;;;10.70;99.90;;;;;;5054258;28;20040;-72
2021/05/31 04:41:27;;;;;;;62.92;27.65;;;10.70;99.90;;;;;;5055048;28;20480;-70
2021/05/31 04:43:53;;;;;;;57.63;28.33;;;10.60;99.90;;;;;;5054878;28;20037;-70
2021/05/31 04:46:18;;;;;;;57.20;27.08;;;10.70;99.90;;;;;;5054179;28;20485;-72
2021/05/31 04:48:44;;;;;;;64.10;30.45;;;10.70;99.90;;;;;;5054170;28;20052;-72
2021/05/31 04:51:10;;;;;;;57.72;27.98;;;10.80;99.90;;;;;;5054082;28;20037;-72
2021/05/31 04:53:36;;;;;;;59.10;27.60;;;10.80;99.90;;;;;;5054284;28;20111;-72
2021/05/31 04:56:05;;;;;;;64.95;28.55;;;10.90;99.90;;;;;;5054016;28;20068;-72
2021/05/31 04:58:31;;;;;;;66.63;28.88;;;10.90;99.90;;;;;;5053576;28;20041;-72
2021/05/31 05:00:57;;;;;;;58.72;28.52;;;10.90;99.90;;;;;;5053842;28;20503;-71
2021/05/31 05:03:23;;;;;;;62.95;27.88;;;10.80;99.90;;;;;;5054118;28;20397;-72
2021/05/31 05:05:49;;;;;;;54.03;27.40;;;10.90;99.90;;;;;;5053792;28;20107;-71
2021/05/31 05:08:16;;;;;;;70.28;27.73;;;11.00;99.90;;;;;;5054072;28;20444;-71
2021/05/31 05:10:42;;;;;;;63.72;29.85;;;11.00;99.90;;;;;;5053311;28;20123;-71
2021/05/31 05:13:09;;;;;;;69.38;30.67;;;11.00;99.90;;;;;;5053921;28;20041;-72
2021/05/31 05:15:35;;;;;;;65.28;30.48;;;11.00;99.90;;;;;;5053979;28;20043;-72
2021/05/31 05:18:02;;;;;;;82.68;31.30;;;11.10;99.90;;;;;;5035759;28;20481;-71
2021/05/31 05:20:32;;;;;;;73.45;30.33;;;11.10;99.90;;;;;;5053260;28;20044;-72
2021/05/31 05:22:58;;;;;;;65.75;29.38;;;11.10;99.90;;;;;;5053738;28;20033;-72
2021/05/31 05:25:25;;;;;;;69.60;29.65;;;11.10;99.90;;;;;;5053782;28;20036;-71
2021/05/31 05:27:52;;;;;;;66.28;29.83;;;11.00;99.90;;;;;;5054060;28;20041;-71
2021/05/31 05:30:26;;;;;;;75.13;30.67;;;11.00;99.90;;;;;;5053236;28;20052;-72
2021/05/31 05:32:59;;;;;;;61.97;28.20;;;11.10;99.90;;;;;;5053437;28;20118;-72
2021/05/31 05:35:31;;;;;;;68.22;28.30;;;11.20;99.90;;;;;;5054070;28;20052;-72
2021/05/31 05:43:36;;;;;;;49.78;24.83;;;11.20;99.90;;;;;;5053764;28;20091;-72
2021/05/31 05:48:32;;;;;;;48.55;25.02;;;11.30;99.90;;;;;;5052777;28;20083;-72
2021/05/31 05:51:06;;;;;;;62.65;26.30;;;11.40;99.90;;;;;;5053485;28;20090;-72
2021/05/31 05:53:34;;;;;;;55.70;28.35;;;11.40;99.90;;;;;;5053940;28;20083;-71
2021/05/31 05:56:00;;;;;;;68.70;28.17;;;11.50;99.90;;;;;;5053746;28;20047;-72
2021/05/31 05:58:29;;;;;;;49.08;26.10;;;11.40;99.90;;;;;;5052872;28;20045;-72
2021/05/31 06:00:57;;;;;;;57.80;28.30;;;11.40;99.90;;;;;;5053030;28;20043;-72
2021/05/31 06:03:22;;;;;;;60.45;28.38;;;11.50;99.90;;;;;;5053651;28;20037;-72
2021/05/31 06:05:48;;;;;;;57.05;28.05;;;11.50;99.90;;;;;;5053444;28;20090;-72
2021/05/31 06:08:14;;;;;;;64.28;29.80;;;11.60;99.90;;;;;;5053028;28;20044;-72
2021/05/31 06:10:40;;;;;;;58.28;27.98;;;11.60;99.90;;;;;;5034876;28;20069;-72
2021/05/31 06:13:05;;;;;;;59.05;28.40;;;11.70;99.90;;;;;;5052873;28;20033;-72
2021/05/31 06:15:31;;;;;;;58.55;27.92;;;11.70;99.90;;;;;;5053489;28;20041;-72
2021/05/31 06:17:58;;;;;;;58.30;28.50;;;11.70;99.90;;;;;;5052883;28;20048;-72
2021/05/31 06:20:23;;;;;;;60.35;28.70;;;11.70;99.90;;;;;;5052739;28;20124;-72
2021/05/31 06:22:50;;;;;;;57.80;27.75;;;11.80;99.90;;;;;;5052847;28;20065;-72
2021/05/31 06:25:19;;;;;;;65.43;30.70;;;11.80;99.90;;;;;;5053028;28;20099;-72
2021/05/31 06:27:45;;;;;;;63.53;30.13;;;11.80;99.90;;;;;;5052777;28;20083;-72
2021/05/31 06:30:11;;;;;;;64.57;29.35;;;11.70;99.90;;;;;;5052552;28;20037;-72
2021/05/31 06:32:37;;;;;;;61.15;28.75;;;11.80;99.90;;;;;;5052777;28;20065;-72
2021/05/31 06:35:03;;;;;;;60.95;30.17;;;11.90;99.90;;;;;;5053280;28;20075;-72
2021/05/31 06:37:31;;;;;;;53.85;27.67;;;12.00;99.90;;;;;;5053191;28;20072;-72
2021/05/31 06:40:17;;;;;;;53.42;27.00;;;12.00;99.90;;;;;;5037597;28;20548;-72
2021/05/31 06:42:47;;;;;;;60.83;29.77;;;12.10;99.90;;;;;;5053226;28;20123;-71
2021/05/31 06:45:25;;;;;;;55.25;30.90;;;12.00;99.90;;;;;;5052923;28;20377;-72
2021/05/31 06:47:56;;;;;;;53.85;27.88;;;12.10;99.90;;;;;;5053211;28;20052;-72
2021/05/31 06:50:24;;;;;;;52.75;27.40;;;12.10;99.90;;;;;;5052180;28;20044;-73
2021/05/31 06:52:50;;;;;;;54.72;27.95;;;12.10;99.90;;;;;;5053319;28;20480;-72
2021/05/31 06:55:18;;;;;;;45.33;27.02;;;12.20;99.90;;;;;;5052636;28;20108;-72
2021/05/31 06:57:46;;;;;;;49.72;25.50;;;12.30;99.90;;;;;;5052456;28;20501;-72
2021/05/31 07:00:13;;;;;;;45.97;24.90;;;12.30;99.90;;;;;;5054318;28;20051;-72
2021/05/31 07:02:40;;;;;;;37.47;22.55;;;12.40;99.90;;;;;;5056811;28;20091;-72
2021/05/31 07:05:07;;;;;;;41.42;23.10;;;12.50;99.90;;;;;;5056876;28;20041;-72
2021/05/31 07:07:33;;;;;;;45.67;25.23;;;12.70;99.90;;;;;;5056104;28;20094;-72
2021/05/31 07:09:59;;;;;;;41.15;23.20;;;12.60;99.90;;;;;;5055773;28;20034;-72
2021/05/31 07:12:25;;;;;;;36.55;23.08;;;12.90;99.90;;;;;;5055964;28;20064;-72
2021/05/31 07:14:52;;;;;;;37.38;22.38;;;13.10;99.90;;;;;;5055967;28;20033;-72
2021/05/31 07:17:18;;;;;;;42.60;23.33;;;13.30;99.90;;;;;;5056504;28;20044;-72
2021/05/31 07:19:45;;;;;;;34.78;20.90;;;13.50;99.90;;;;;;5055611;28;20068;-72
2021/05/31 07:22:19;;;;;;;31.90;19.02;;;13.80;99.90;;;;;;5055971;28;20033;-72
2021/05/31 07:24:46;;;;;;;26.35;18.15;;;13.80;99.90;;;;;;5056076;28;20132;-72
2021/05/31 07:27:11;;;;;;;31.35;19.60;;;13.80;99.90;;;;;;5056374;28;20041;-72
2021/05/31 07:29:38;;;;;;;26.27;18.85;;;13.70;99.90;;;;;;5055475;28;20485;-72
2021/05/31 07:32:05;;;;;;;30.85;19.55;;;13.70;99.90;;;;;;5055918;28;20123;-72
2021/05/31 07:34:30;;;;;;;29.48;18.92;;;13.60;99.90;;;;;;5056277;28;20048;-71
2021/05/31 07:36:57;;;;;;;27.58;18.98;;;13.70;99.90;;;;;;5055587;28;20488;-71
2021/05/31 07:39:23;;;;;;;31.65;21.20;;;13.60;99.90;;;;;;5055098;28;20041;-72
2021/05/31 07:41:51;;;;;;;27.35;17.55;;;13.60;99.90;;;;;;5055978;28;20369;-72
2021/05/31 07:44:32;;;;;;;27.90;18.52;;;13.60;99.90;;;;;;5056231;28;20373;-71
2021/05/31 07:46:58;;;;;;;27.65;18.08;;;13.50;99.90;;;;;;5055555;28;20048;-71
2021/05/31 07:49:26;;;;;;;23.83;17.33;;;13.80;99.90;;;;;;5055250;28;20044;-72
2021/05/31 07:51:54;;;;;;;27.02;18.73;;;13.90;99.90;;;;;;5055286;28;20428;-72
2021/05/31 07:54:22;;;;;;;28.33;18.92;;;13.90;99.80;;;;;;5037519;28;20045;-72
2021/05/31 07:56:48;;;;;;;28.65;20.00;;;13.90;99.60;;;;;;5055036;28;20037;-71
2021/05/31 07:59:14;;;;;;;26.67;19.17;;;13.90;99.60;;;;;;5040156;28;20052;-71
2021/05/31 08:01:41;;;;;;;30.75;19.65;;;13.50;99.90;;;;;;5035609;28;20068;-71
2021/05/31 08:04:06;;;;;;;30.80;20.77;;;13.70;99.90;;;;;;5035150;28;20038;-71
2021/05/31 08:06:34;;;;;;;31.55;20.85;;;13.70;99.70;;;;;;5035383;28;20350;-72
2021/05/31 08:09:00;;;;;;;27.60;20.13;;;13.60;99.90;;;;;;5034748;28;20044;-71
2021/05/31 08:11:27;;;;;;;32.08;21.60;;;13.80;99.80;;;;;;5034246;28;20068;-71
2021/05/31 08:13:53;;;;;;;33.13;22.23;;;13.90;99.70;;;;;;5035556;28;20060;-71
2021/05/31 08:16:19;;;;;;;31.50;22.40;;;14.10;99.70;;;;;;5035028;28;20474;-71
2021/05/31 08:18:45;;;;;;;36.88;21.67;;;14.20;99.10;;;;;;5034713;28;20042;-71
2021/05/31 08:21:11;;;;;;;31.75;20.88;;;14.50;99.00;;;;;;5034906;28;20041;-71
2021/05/31 08:23:38;;;;;;;30.05;21.65;;;14.80;99.00;;;;;;5035233;28;20033;-71
2021/05/31 08:26:04;;;;;;;27.50;20.05;;;15.50;98.10;;;;;;5035436;28;20077;-71
2021/05/31 08:28:30;;;;;;;30.05;20.40;;;15.90;97.40;;;;;;5035061;28;20073;-72
2021/05/31 08:30:56;;;;;;;25.42;19.67;;;16.20;96.00;;;;;;5034625;28;20112;-72
2021/05/31 08:33:21;;;;;;;27.38;19.52;;;16.50;95.50;;;;;;5034617;28;20034;-72
2021/05/31 08:35:47;;;;;;;27.25;20.40;;;16.80;94.70;;;;;;5033787;28;20551;-71
2021/05/31 08:38:13;;;;;;;25.17;19.20;;;17.00;94.00;;;;;;5034966;28;20042;-72
2021/05/31 08:40:39;;;;;;;26.35;21.00;;;17.30;94.10;;;;;;5034256;28;20041;-72
2021/05/31 08:43:05;;;;;;;30.55;22.75;;;17.40;93.40;;;;;;5034700;28;20040;-72
2021/05/31 08:45:32;;;;;;;25.60;20.40;;;17.20;93.80;;;;;;5034790;28;20037;-70
2021/05/31 08:47:59;;;;;;;28.70;20.02;;;17.60;92.90;;;;;;5034437;28;20389;-70
2021/05/31 08:50:29;;;;;;;23.98;19.88;;;17.60;93.60;;;;;;5034156;28;20041;-71
2021/05/31 08:52:55;;;;;;;25.02;20.02;;;18.10;93.70;;;;;;5034849;28;20041;-71
2021/05/31 08:55:24;;;;;;;27.13;20.58;;;18.30;92.60;;;;;;5034188;28;20547;-71
2021/05/31 08:57:50;;;;;;;24.85;20.17;;;18.40;91.90;;;;;;5034049;28;20045;-71
2021/05/31 09:00:24;;;;;;;25.48;19.70;;;18.40;91.40;;;;;;5033752;28;20397;-71
2021/05/31 09:02:52;;;;;;;28.20;20.20;;;18.50;91.70;;;;;;5034397;28;20038;-71
2021/05/31 09:05:49;;;;;;;26.63;19.35;;;18.70;92.00;;;;;;5034481;28;20069;-72
2021/05/31 09:08:21;;;;;;;29.10;20.63;;;18.90;90.30;;;;;;5034155;28;20136;-71
2021/05/31 09:10:54;;;;;;;28.67;19.13;;;19.10;90.70;;;;;;5033492;28;20038;-71
2021/05/31 09:13:32;;;;;;;23.70;18.60;;;19.00;91.00;;;;;;5033838;28;20068;-71
2021/05/31 09:16:17;;;;;;;23.73;18.70;;;19.00;89.20;;;;;;5016765;28;20120;-71
2021/05/31 09:18:48;;;;;;;24.60;18.10;;;19.20;91.00;;;;;;5034030;28;20044;-72
2021/05/31 09:21:21;;;;;;;25.75;18.23;;;19.40;90.70;;;;;;5016251;28;20091;-71
2021/05/31 09:23:52;;;;;;;27.48;19.23;;;19.50;89.50;;;;;;5033747;28;20041;-71
2021/05/31 09:26:17;;;;;;;21.98;17.45;;;19.50;88.60;;;;;;5033838;28;20065;-71
2021/05/31 09:28:57;;;;;;;26.83;19.05;;;19.70;89.10;;;;;;5033391;28;20069;-72
2021/05/31 09:31:24;;;;;;;25.08;17.77;;;19.80;87.90;;;;;;5033711;28;20078;-72
2021/05/31 09:34:04;;;;;;;19.42;14.60;;;19.80;87.60;;;;;;5034136;28;20041;-72
2021/05/31 09:36:31;;;;;;;19.95;14.57;;;19.70;81.80;;;;;;5033827;28;20107;-71
2021/05/31 09:38:59;;;;;;;21.25;15.35;;;20.00;83.80;;;;;;5033167;28;20069;-72
2021/05/31 09:41:29;;;;;;;18.35;14.50;;;20.10;81.00;;;;;;5033468;28;20443;-71
2021/05/31 09:43:57;;;;;;;22.42;14.50;;;20.00;81.60;;;;;;5033775;28;20038;-72
2021/05/31 09:46:38;;;;;;;17.65;14.23;;;20.10;79.50;;;;;;5033453;28;20405;-71
2021/05/31 09:49:11;;;;;;;19.45;13.27;;;20.00;79.40;;;;;;5033055;28;20045;-72
2021/05/31 09:52:00;;;;;;;20.83;13.90;;;20.10;79.80;;;;;;5033353;28;20038;-71
2021/05/31 09:54:40;;;;;;;20.48;14.75;;;20.20;79.20;;;;;;5033175;28;20432;-72
2021/05/31 09:57:26;;;;;;;21.00;14.57;;;20.10;81.20;;;;;;5033175;28;20120;-71
2021/05/31 10:00:07;;;;;;;18.13;14.38;;;20.00;80.00;;;;;;5032850;28;20041;-69
2021/05/31 10:02:53;;;;;;;20.23;14.82;;;20.30;80.20;;;;;;5033111;28;20065;-71
2021/05/31 10:05:57;;;;;;;18.83;12.82;;;20.30;78.80;;;;;;5032993;28;20064;-72
2021/05/31 10:10:55;;;;;;;18.40;13.65;;;20.20;77.50;;;;;;5033554;28;20041;-71
2021/05/31 10:13:22;;;;;;;13.98;11.18;;;20.20;76.20;;;;;;5015364;28;20124;-71
2021/05/31 10:15:48;;;;;;;17.90;12.60;;;20.20;75.90;;;;;;5033181;28;20045;-71
2021/05/31 10:18:16;;;;;;;19.95;13.32;;;20.20;75.80;;;;;;5033727;28;20095;-71
2021/05/31 10:20:44;;;;;;;15.20;11.20;;;20.00;77.60;;;;;;5032818;28;20053;-71
2021/05/31 10:23:11;;;;;;;16.13;10.63;;;20.20;76.90;;;;;;5033313;28;20041;-71
2021/05/31 10:25:41;;;;;;;15.23;11.50;;;20.30;75.40;;;;;;5033554;28;20033;-71
2021/05/31 10:28:15;;;;;;;15.70;11.63;;;20.40;73.90;;;;;;5033702;28;20037;-72
2021/05/31 10:30:42;;;;;;;15.05;10.88;;;20.40;73.70;;;;;;5032593;28;20037;-72
2021/05/31 10:33:19;;;;;;;10.90;8.90;;;20.40;75.30;;;;;;5015853;28;20033;-72
2021/05/31 10:35:46;;;;;;;15.15;9.05;;;20.30;72.60;;;;;;5036570;28;20113;-72
2021/05/31 10:38:19;;;;;;;11.80;8.82;;;20.50;72.10;;;;;;5035815;28;20056;-72
2021/05/31 10:40:50;;;;;;;13.00;9.48;;;20.50;71.60;;;;;;5036981;28;20045;-72
2021/05/31 10:43:19;;;;;;;13.57;9.10;;;20.40;70.70;;;;;;5037076;28;20047;-71
2021/05/31 10:45:45;;;;;;;15.57;9.95;;;20.40;70.60;;;;;;5036889;28;20143;-72
2021/05/31 10:48:32;;;;;;;12.07;8.82;;;20.40;71.80;;;;;;5037186;28;20098;-72
2021/05/31 10:51:00;;;;;;;12.80;8.18;;;20.50;72.20;;;;;;5036558;28;20112;-72
2021/05/31 10:53:31;;;;;;;9.60;7.30;;;20.60;71.80;;;;;;5036772;28;20041;-71
2021/05/31 10:56:08;;;;;;;11.18;7.43;;;20.50;67.50;;;;;;5036799;28;20100;-72
2021/05/31 10:58:40;;;;;;;10.02;7.60;;;20.60;67.10;;;;;;5035928;28;20041;-72
2021/05/31 11:01:13;;;;;;;10.40;6.90;;;20.60;68.10;;;;;;5036253;28;20045;-72
2021/05/31 11:03:46;;;;;;;13.13;8.32;;;20.60;68.10;;;;;;5036648;28;20063;-71
2021/05/31 11:06:17;;;;;;;12.68;8.40;;;20.60;68.00;;;;;;5036158;28;20040;-71
2021/05/31 11:08:55;;;;;;;11.40;8.32;;;20.60;67.10;;;;;;5035978;28;20042;-72
2021/05/31 11:11:32;;;;;;;11.63;8.35;;;20.70;67.80;;;;;;5036038;28;20034;-71
2021/05/31 11:14:00;;;;;;;16.40;8.73;;;20.80;68.40;;;;;;5036715;28;20069;-71
2021/05/31 11:16:26;;;;;;;13.82;8.48;;;20.80;67.60;;;;;;5036099;28;20087;-71
2021/05/31 11:19:04;;;;;;;13.85;9.32;;;20.80;67.90;;;;;;5035705;28;20040;-72
2021/05/31 11:21:44;;;;;;;11.65;9.38;;;20.70;67.20;;;;;;5036479;28;20048;-71
2021/05/31 11:24:13;;;;;;;13.82;9.40;;;20.80;68.30;;;;;;5036037;28;20041;-71
2021/05/31 11:26:41;;;;;;;16.58;10.70;;;20.70;68.50;;;;;;5036228;28;20040;-71
2021/05/31 11:29:09;;;;;;;12.73;9.68;;;20.80;68.60;;;;;;5035435;28;20049;-71
2021/05/31 11:31:37;;;;;;;15.95;10.85;;;20.70;69.50;;;;;;5036316;28;20077;-71
2021/05/31 11:34:04;;;;;;;11.85;9.18;;;20.90;69.30;;;;;;5035913;28;20037;-72
2021/05/31 11:36:36;;;;;;;11.15;8.60;;;20.90;69.10;;;;;;5017980;28;20432;-71
2021/05/31 11:39:11;;;;;;;12.52;8.90;;;21.00;67.00;;;;;;5035415;28;20037;-71
2021/05/31 11:41:43;;;;;;;12.27;8.75;;;21.00;66.10;;;;;;5035649;28;20069;-71
2021/05/31 11:44:20;;;;;;;13.07;9.90;;;21.10;67.50;;;;;;5035618;28;20042;-71
2021/05/31 11:46:48;;;;;;;13.73;8.73;;;21.20;67.70;;;;;;5035291;28;20067;-71
2021/05/31 11:49:15;;;;;;;20.80;10.13;;;21.10;68.80;;;;;;5035021;28;20155;-72
2021/05/31 11:51:41;;;;;;;12.57;9.07;;;21.20;69.60;;;;;;5035635;28;20068;-71
2021/05/31 11:54:07;;;;;;;11.77;8.18;;;21.20;67.80;;;;;;5035428;28;20080;-71
2021/05/31 11:56:36;;;;;;;13.32;9.32;;;21.30;67.30;;;;;;5035866;28;20029;-72
2021/05/31 11:59:03;;;;;;;9.32;7.65;;;21.30;67.50;;;;;;5034715;28;20040;-72
2021/05/31 12:01:29;;;;;;;11.55;7.43;;;21.40;68.70;;;;;;5035251;28;20041;-71
2021/05/31 12:03:56;;;;;;;8.48;6.45;;;21.50;67.70;;;;;;5034984;28;20045;-71
2021/05/31 12:06:22;;;;;;;14.25;7.75;;;21.60;65.80;;;;;;5034920;28;20038;-71
2021/05/31 12:08:49;;;;;;;10.10;6.63;;;21.60;65.80;;;;;;5034710;28;20509;-71
2021/05/31 12:11:24;;;;;;;10.20;6.57;;;21.50;64.50;;;;;;5035416;28;20477;-72
2021/05/31 12:14:00;;;;;;;8.88;6.03;;;21.50;63.90;;;;;;5017310;28;20029;-72
2021/05/31 12:16:26;;;;;;;9.27;6.03;;;21.60;63.40;;;;;;5035250;28;20044;-72
2021/05/31 12:18:51;;;;;;;7.95;5.95;;;21.70;62.30;;;;;;5034269;28;20041;-71
2021/05/31 12:21:18;;;;;;;9.70;6.35;;;21.70;62.00;;;;;;5034826;28;20065;-72
2021/05/31 12:23:50;;;;;;;8.65;5.35;;;21.80;61.20;;;;;;5035431;28;20041;-72
2021/05/31 12:26:21;;;;;;;8.35;5.57;;;21.80;60.80;;;;;;5035125;28;20045;-71
2021/05/31 12:28:50;;;;;;;7.63;3.60;;;21.80;60.30;;;;;;5034638;28;20042;-72
2021/05/31 12:31:15;;;;;;;5.07;3.80;;;21.80;55.70;;;;;;5034825;28;20029;-71
2021/05/31 12:33:42;;;;;;;5.70;3.88;;;21.80;50.90;;;;;;5034399;28;20433;-71
2021/05/31 12:36:08;;;;;;;4.88;4.05;;;21.90;52.40;;;;;;5035162;28;20087;-71
2021/05/31 12:38:34;;;;;;;8.23;4.25;;;22.00;53.20;;;;;;5033785;28;20498;-72
2021/05/31 12:41:00;;;;;;;6.25;3.60;;;22.00;52.70;;;;;;5034352;28;20176;-71
2021/05/31 12:43:33;;;;;;;5.15;3.58;;;22.10;54.10;;;;;;5034215;28;20441;-70
2021/05/31 12:46:01;;;;;;;6.50;3.17;;;22.20;51.30;;;;;;5047554;28;20045;-70
2021/05/31 12:48:26;;;;;;;4.57;2.75;;;22.20;49.30;;;;;;5054265;28;20041;-71
2021/05/31 12:50:57;;;;;;;3.63;2.50;;;22.30;47.70;;;;;;5054447;28;20033;-70
2021/05/31 12:53:28;;;;;;;4.63;2.92;;;22.40;45.00;;;;;;5054190;28;20370;-70
2021/05/31 12:56:00;;;;;;;6.07;2.90;;;22.40;45.90;;;;;;5054457;28;20035;-70